sensor_id;sensor_type;location;lat;lon;timestamp;temperature;humidity
75985;DHT22;65033;44.660;37.758;2024-01-15T00:00:07;8.17;60.72
75985;DHT22;65033;44.660;37.758;2024-01-15T00:01:15;8.19;62.66
75985;DHT22;65033;44.660;37.758;2024-01-15T00:02:18;8.20;61.60
75985;DHT22;65033;44.660;37.758;2024-01-15T00:03:21;8.18;60.45
75985;DHT22;65033;44.660;37.758;2024-01-15T00:04:25;8.20;60.78
75985;DHT22;65033;44.660;37.758;2024-01-15T00:05:29;8.18;60.65
75985;DHT22;65033;44.660;37.758;2024-01-15T00:06:33;8.19;61.13
75985;DHT22;65033;44.660;37.758;2024-01-15T00:07:38;8.20;62.01
75985;DHT22;65033;44.660;37.758;2024-01-15T00:08:41;8.22;60.47
75985;DHT22;65033;44.660;37.758;2024-01-15T00:09:45;8.21;61.08
75985;DHT22;65033;44.660;37.758;2024-01-15T00:10:48;8.22;60.79
75985;DHT22;65033;44.660;37.758;2024-01-15T00:11:52;8.22;61.52
75985;DHT22;65033;44.660;37.758;2024-01-15T00:12:55;8.23;61.69
75985;DHT22;65033;44.660;37.758;2024-01-15T00:13:59;8.22;61.15
75985;DHT22;65033;44.660;37.758;2024-01-15T00:15:02;8.22;60.68
75985;DHT22;65033;44.660;37.758;2024-01-15T00:16:06;8.19;60.29
75985;DHT22;65033;44.660;37.758;2024-01-15T00:18:31;8.18;61.74
75985;DHT22;65033;44.660;37.758;2024-01-15T00:19:34;8.19;62.44
75985;DHT22;65033;44.660;37.758;2024-01-15T00:20:38;8.23;62.05
75985;DHT22;65033;44.660;37.758;2024-01-15T00:21:41;8.21;61.03
75985;DHT22;65033;44.660;37.758;2024-01-15T00:22:47;8.21;61.20
75985;DHT22;65033;44.660;37.758;2024-01-15T00:23:50;8.21;61.92
75985;DHT22;65033;44.660;37.758;2024-01-15T00:24:54;8.20;62.68
75985;DHT22;65033;44.660;37.758;2024-01-15T00:25:57;8.21;60.93
75985;DHT22;65033;44.660;37.758;2024-01-15T00:27:01;8.21;60.75
75985;DHT22;65033;44.660;37.758;2024-01-15T00:28:05;8.21;63.08
75985;DHT22;65033;44.660;37.758;2024-01-15T00:29:08;8.21;63.94
75985;DHT22;65033;44.660;37.758;2024-01-15T00:30:30;8.24;65.72
75985;DHT22;65033;44.660;37.758;2024-01-15T00:31:34;8.22;65.66
75985;DHT22;65033;44.660;37.758;2024-01-15T00:32:38;8.20;64.94
75985;DHT22;65033;44.660;37.758;2024-01-15T00:34:00;8.16;64.99
75985;DHT22;65033;44.660;37.758;2024-01-15T00:35:04;8.16;64.87
75985;DHT22;65033;44.660;37.758;2024-01-15T00:36:09;8.15;63.64
75985;DHT22;65033;44.660;37.758;2024-01-15T00:37:12;8.15;63.52
75985;DHT22;65033;44.660;37.758;2024-01-15T00:38:18;8.15;63.81
75985;DHT22;65033;44.660;37.758;2024-01-15T00:39:21;8.17;65.66
75985;DHT22;65033;44.660;37.758;2024-01-15T00:40:25;8.17;66.20
75985;DHT22;65033;44.660;37.758;2024-01-15T00:41:29;8.20;66.96
75985;DHT22;65033;44.660;37.758;2024-01-15T00:42:32;8.21;66.53
75985;DHT22;65033;44.660;37.758;2024-01-15T00:43:36;8.18;66.19
75985;DHT22;65033;44.660;37.758;2024-01-15T00:44:40;8.21;66.49
75985;DHT22;65033;44.660;37.758;2024-01-15T00:45:43;8.23;65.26
75985;DHT22;65033;44.660;37.758;2024-01-15T00:46:47;8.26;65.85
75985;DHT22;65033;44.660;37.758;2024-01-15T00:47:51;8.28;65.69
75985;DHT22;65033;44.660;37.758;2024-01-15T00:48:55;8.28;64.47
75985;DHT22;65033;44.660;37.758;2024-01-15T00:49:58;8.29;63.97
75985;DHT22;65033;44.660;37.758;2024-01-15T00:51:02;8.29;64.59
75985;DHT22;65033;44.660;37.758;2024-01-15T00:52:06;8.26;65.63
75985;DHT22;65033;44.660;37.758;2024-01-15T00:53:10;8.23;66.40
75985;DHT22;65033;44.660;37.758;2024-01-15T00:54:15;8.24;66.88
75985;DHT22;65033;44.660;37.758;2024-01-15T00:55:19;8.26;68.52
75985;DHT22;65033;44.660;37.758;2024-01-15T00:56:41;8.27;65.95
75985;DHT22;65033;44.660;37.758;2024-01-15T00:57:45;8.29;66.03
75985;DHT22;65033;44.660;37.758;2024-01-15T00:58:49;8.32;67.07
75985;DHT22;65033;44.660;37.758;2024-01-15T00:59:53;8.34;66.28
75985;DHT22;65033;44.660;37.758;2024-01-15T01:01:15;8.36;60.50
75985;DHT22;65033;44.660;37.758;2024-01-15T01:02:38;8.39;53.97
75985;DHT22;65033;44.660;37.758;2024-01-15T01:03:42;8.42;54.02
75985;DHT22;65033;44.660;37.758;2024-01-15T01:04:48;8.43;53.01
75985;DHT22;65033;44.660;37.758;2024-01-15T01:05:51;8.44;53.62
75985;DHT22;65033;44.660;37.758;2024-01-15T01:06:55;8.45;55.10
75985;DHT22;65033;44.660;37.758;2024-01-15T01:07:59;8.46;55.29
75985;DHT22;65033;44.660;37.758;2024-01-15T01:09:03;8.47;55.10
75985;DHT22;65033;44.660;37.758;2024-01-15T01:10:08;8.45;53.85
75985;DHT22;65033;44.660;37.758;2024-01-15T01:11:13;8.45;52.91
75985;DHT22;65033;44.660;37.758;2024-01-15T01:13:39;8.42;54.22
75985;DHT22;65033;44.660;37.758;2024-01-15T01:14:42;8.42;54.74
75985;DHT22;65033;44.660;37.758;2024-01-15T01:15:46;8.41;51.79
75985;DHT22;65033;44.660;37.758;2024-01-15T01:17:08;8.41;51.89
75985;DHT22;65033;44.660;37.758;2024-01-15T01:18:12;8.41;52.70
75985;DHT22;65033;44.660;37.758;2024-01-15T01:19:17;8.41;52.78
75985;DHT22;65033;44.660;37.758;2024-01-15T01:20:22;8.41;52.07
75985;DHT22;65033;44.660;37.758;2024-01-15T01:21:27;8.42;52.27
75985;DHT22;65033;44.660;37.758;2024-01-15T01:22:31;8.41;50.27
75985;DHT22;65033;44.660;37.758;2024-01-15T01:23:36;8.39;50.00
75985;DHT22;65033;44.660;37.758;2024-01-15T01:26:04;8.42;50.43
75985;DHT22;65033;44.660;37.758;2024-01-15T01:27:08;8.43;50.18
75985;DHT22;65033;44.660;37.758;2024-01-15T01:28:30;8.42;50.99
75985;DHT22;65033;44.660;37.758;2024-01-15T01:29:34;8.42;50.88
75985;DHT22;65033;44.660;37.758;2024-01-15T01:30:37;8.43;51.87
75985;DHT22;65033;44.660;37.758;2024-01-15T01:31:43;8.42;52.34
75985;DHT22;65033;44.660;37.758;2024-01-15T01:32:47;8.44;54.07
75985;DHT22;65033;44.660;37.758;2024-01-15T01:33:51;8.45;54.51
75985;DHT22;65033;44.660;37.758;2024-01-15T01:34:54;8.47;53.20
75985;DHT22;65033;44.660;37.758;2024-01-15T01:35:58;8.46;52.05
75985;DHT22;65033;44.660;37.758;2024-01-15T01:37:02;8.46;52.97
75985;DHT22;65033;44.660;37.758;2024-01-15T01:38:24;8.49;54.10
75985;DHT22;65033;44.660;37.758;2024-01-15T01:39:27;8.52;55.36
75985;DHT22;65033;44.660;37.758;2024-01-15T01:40:50;8.52;52.33
75985;DHT22;65033;44.660;37.758;2024-01-15T01:41:55;8.51;52.40
75985;DHT22;65033;44.660;37.758;2024-01-15T01:42:58;8.52;54.21
75985;DHT22;65033;44.660;37.758;2024-01-15T01:44:04;8.53;56.14
75985;DHT22;65033;44.660;37.758;2024-01-15T01:45:08;8.55;54.47
75985;DHT22;65033;44.660;37.758;2024-01-15T01:46:12;8.56;53.43
75985;DHT22;65033;44.660;37.758;2024-01-15T01:47:16;8.57;53.34
75985;DHT22;65033;44.660;37.758;2024-01-15T01:48:19;8.58;54.49
75985;DHT22;65033;44.660;37.758;2024-01-15T01:49:23;8.59;52.72
75985;DHT22;65033;44.660;37.758;2024-01-15T01:50:28;8.58;51.95
75985;DHT22;65033;44.660;37.758;2024-01-15T01:51:33;8.58;51.93
75985;DHT22;65033;44.660;37.758;2024-01-15T01:52:38;8.56;51.73
75985;DHT22;65033;44.660;37.758;2024-01-15T01:53:43;8.56;54.07
75985;DHT22;65033;44.660;37.758;2024-01-15T01:54:47;8.59;54.30
75985;DHT22;65033;44.660;37.758;2024-01-15T01:55:51;8.57;54.39
75985;DHT22;65033;44.660;37.758;2024-01-15T01:56:57;8.53;51.82
75985;DHT22;65033;44.660;37.758;2024-01-15T01:58:02;8.56;52.49
75985;DHT22;65033;44.660;37.758;2024-01-15T01:59:07;8.55;52.60
75985;DHT22;65033;44.660;37.758;2024-01-15T02:00:13;8.56;53.01
75985;DHT22;65033;44.660;37.758;2024-01-15T02:01:19;8.57;53.15
75985;DHT22;65033;44.660;37.758;2024-01-15T02:02:24;8.59;51.75
75985;DHT22;65033;44.660;37.758;2024-01-15T02:03:29;8.59;52.76
75985;DHT22;65033;44.660;37.758;2024-01-15T02:04:33;8.61;53.94
75985;DHT22;65033;44.660;37.758;2024-01-15T02:05:37;8.62;53.20
75985;DHT22;65033;44.660;37.758;2024-01-15T02:07:01;8.64;53.02
75985;DHT22;65033;44.660;37.758;2024-01-15T02:08:04;8.64;52.51
75985;DHT22;65033;44.660;37.758;2024-01-15T02:09:08;8.66;51.94
75985;DHT22;65033;44.660;37.758;2024-01-15T02:10:13;8.67;52.65
75985;DHT22;65033;44.660;37.758;2024-01-15T02:11:35;8.67;51.90
75985;DHT22;65033;44.660;37.758;2024-01-15T02:12:40;8.67;52.20
75985;DHT22;65033;44.660;37.758;2024-01-15T02:13:43;8.68;52.22
75985;DHT22;65033;44.660;37.758;2024-01-15T02:15:05;8.68;52.37
75985;DHT22;65033;44.660;37.758;2024-01-15T02:16:09;8.68;52.53
75985;DHT22;65033;44.660;37.758;2024-01-15T02:17:30;8.68;52.94
75985;DHT22;65033;44.660;37.758;2024-01-15T02:18:40;8.68;53.93
75985;DHT22;65033;44.660;37.758;2024-01-15T02:19:43;8.67;54.01
75985;DHT22;65033;44.660;37.758;2024-01-15T02:20:47;8.68;54.01
75985;DHT22;65033;44.660;37.758;2024-01-15T02:22:09;8.71;54.53
75985;DHT22;65033;44.660;37.758;2024-01-15T02:23:14;8.70;54.23
75985;DHT22;65033;44.660;37.758;2024-01-15T02:24:18;8.71;54.84
75985;DHT22;65033;44.660;37.758;2024-01-15T02:25:21;8.71;55.11
75985;DHT22;65033;44.660;37.758;2024-01-15T02:26:25;8.72;56.87
75985;DHT22;65033;44.660;37.758;2024-01-15T02:27:29;8.72;55.45
75985;DHT22;65033;44.660;37.758;2024-01-15T02:29:55;8.74;55.47
75985;DHT22;65033;44.660;37.758;2024-01-15T02:30:59;8.74;54.74
75985;DHT22;65033;44.660;37.758;2024-01-15T02:32:04;8.75;54.47
75985;DHT22;65033;44.660;37.758;2024-01-15T02:33:09;8.74;55.10
75985;DHT22;65033;44.660;37.758;2024-01-15T02:34:13;8.75;55.13
75985;DHT22;65033;44.660;37.758;2024-01-15T02:35:16;8.75;56.36
75985;DHT22;65033;44.660;37.758;2024-01-15T02:36:21;8.77;56.11
75985;DHT22;65033;44.660;37.758;2024-01-15T02:37:24;8.76;56.23
75985;DHT22;65033;44.660;37.758;2024-01-15T02:38:29;8.77;55.92
75985;DHT22;65033;44.660;37.758;2024-01-15T02:39:33;8.77;55.88
75985;DHT22;65033;44.660;37.758;2024-01-15T02:40:38;8.76;54.94
75985;DHT22;65033;44.660;37.758;2024-01-15T02:41:41;8.75;55.85
75985;DHT22;65033;44.660;37.758;2024-01-15T02:42:45;8.76;54.87
75985;DHT22;65033;44.660;37.758;2024-01-15T02:43:48;8.76;54.90
75985;DHT22;65033;44.660;37.758;2024-01-15T02:44:52;8.78;54.05
75985;DHT22;65033;44.660;37.758;2024-01-15T02:45:55;8.77;54.54
75985;DHT22;65033;44.660;37.758;2024-01-15T02:46:59;8.79;55.39
75985;DHT22;65033;44.660;37.758;2024-01-15T02:48:02;8.83;56.44
75985;DHT22;65033;44.660;37.758;2024-01-15T02:49:25;8.86;56.22
75985;DHT22;65033;44.660;37.758;2024-01-15T02:51:50;8.86;54.28
75985;DHT22;65033;44.660;37.758;2024-01-15T02:52:53;8.85;54.13
75985;DHT22;65033;44.660;37.758;2024-01-15T02:54:17;8.88;55.19
75985;DHT22;65033;44.660;37.758;2024-01-15T02:55:21;8.90;57.69
75985;DHT22;65033;44.660;37.758;2024-01-15T02:57:01;8.89;54.97
75985;DHT22;65033;44.660;37.758;2024-01-15T02:58:05;8.89;53.72
75985;DHT22;65033;44.660;37.758;2024-01-15T02:59:08;8.88;53.56
75985;DHT22;65033;44.660;37.758;2024-01-15T03:00:12;8.89;54.30
75985;DHT22;65033;44.660;37.758;2024-01-15T03:01:18;8.88;54.44
75985;DHT22;65033;44.660;37.758;2024-01-15T03:02:24;8.88;55.07
75985;DHT22;65033;44.660;37.758;2024-01-15T03:03:27;8.91;54.51
75985;DHT22;65033;44.660;37.758;2024-01-15T03:04:31;8.91;55.87
75985;DHT22;65033;44.660;37.758;2024-01-15T03:05:34;8.92;55.92
75985;DHT22;65033;44.660;37.758;2024-01-15T03:06:38;8.94;56.29
75985;DHT22;65033;44.660;37.758;2024-01-15T03:07:41;8.95;56.47
75985;DHT22;65033;44.660;37.758;2024-01-15T03:08:45;8.95;57.00
75985;DHT22;65033;44.660;37.758;2024-01-15T03:09:50;8.94;56.50
75985;DHT22;65033;44.660;37.758;2024-01-15T03:10:53;8.95;56.90
75985;DHT22;65033;44.660;37.758;2024-01-15T03:11:57;8.96;57.35
75985;DHT22;65033;44.660;37.758;2024-01-15T03:13:00;8.95;56.59
75985;DHT22;65033;44.660;37.758;2024-01-15T03:14:05;8.97;56.75
75985;DHT22;65033;44.660;37.758;2024-01-15T03:15:08;8.94;57.48
75985;DHT22;65033;44.660;37.758;2024-01-15T03:16:12;8.87;57.36
75985;DHT22;65033;44.660;37.758;2024-01-15T03:17:15;8.82;57.57
75985;DHT22;65033;44.660;37.758;2024-01-15T03:18:19;8.78;57.13
75985;DHT22;65033;44.660;37.758;2024-01-15T03:19:22;8.73;56.58
75985;DHT22;65033;44.660;37.758;2024-01-15T03:20:26;8.74;58.04
75985;DHT22;65033;44.660;37.758;2024-01-15T03:21:29;8.74;59.63
75985;DHT22;65033;44.660;37.758;2024-01-15T03:22:33;8.76;59.16
75985;DHT22;65033;44.660;37.758;2024-01-15T03:23:36;8.77;59.08
75985;DHT22;65033;44.660;37.758;2024-01-15T03:24:39;8.76;59.28
75985;DHT22;65033;44.660;37.758;2024-01-15T03:25:44;9.26;71.77
75985;DHT22;65033;44.660;37.758;2024-01-15T03:26:49;9.50;57.76
75985;DHT22;65033;44.660;37.758;2024-01-15T03:27:53;9.44;54.81
75985;DHT22;65033;44.660;37.758;2024-01-15T03:28:56;9.35;55.21
75985;DHT22;65033;44.660;37.758;2024-01-15T03:30:00;9.25;56.56
75985;DHT22;65033;44.660;37.758;2024-01-15T03:31:05;9.19;56.60
75985;DHT22;65033;44.660;37.758;2024-01-15T03:32:09;9.14;57.20
75985;DHT22;65033;44.660;37.758;2024-01-15T03:33:12;9.07;57.94
75985;DHT22;65033;44.660;37.758;2024-01-15T03:34:16;9.01;58.72
75985;DHT22;65033;44.660;37.758;2024-01-15T03:35:38;8.87;59.56
75985;DHT22;65033;44.660;37.758;2024-01-15T03:36:41;8.78;59.62
75985;DHT22;65033;44.660;37.758;2024-01-15T03:37:45;8.75;60.17
75985;DHT22;65033;44.660;37.758;2024-01-15T03:38:48;8.67;59.73
75985;DHT22;65033;44.660;37.758;2024-01-15T03:39:52;8.65;60.24
75985;DHT22;65033;44.660;37.758;2024-01-15T03:40:57;8.61;61.33
75985;DHT22;65033;44.660;37.758;2024-01-15T03:42:00;8.57;63.56
75985;DHT22;65033;44.660;37.758;2024-01-15T03:43:04;8.51;64.13
75985;DHT22;65033;44.660;37.758;2024-01-15T03:44:07;8.42;62.66
75985;DHT22;65033;44.660;37.758;2024-01-15T03:45:10;8.31;63.31
75985;DHT22;65033;44.660;37.758;2024-01-15T03:46:14;8.24;64.10
75985;DHT22;65033;44.660;37.758;2024-01-15T03:47:17;8.24;66.04
75985;DHT22;65033;44.660;37.758;2024-01-15T03:48:57;8.21;67.18
75985;DHT22;65033;44.660;37.758;2024-01-15T03:50:02;8.19;67.59
75985;DHT22;65033;44.660;37.758;2024-01-15T03:51:05;8.13;67.20
75985;DHT22;65033;44.660;37.758;2024-01-15T03:52:08;8.06;67.99
75985;DHT22;65033;44.660;37.758;2024-01-15T03:53:12;7.93;69.18
75985;DHT22;65033;44.660;37.758;2024-01-15T03:54:16;7.76;71.40
75985;DHT22;65033;44.660;37.758;2024-01-15T03:56:43;7.52;72.91
75985;DHT22;65033;44.660;37.758;2024-01-15T03:57:46;7.42;73.25
75985;DHT22;65033;44.660;37.758;2024-01-15T03:58:50;7.38;74.01
75985;DHT22;65033;44.660;37.758;2024-01-15T03:59:53;7.35;73.24
75985;DHT22;65033;44.660;37.758;2024-01-15T04:00:57;7.35;71.75
75985;DHT22;65033;44.660;37.758;2024-01-15T04:02:18;7.35;72.35
75985;DHT22;65033;44.660;37.758;2024-01-15T04:03:23;7.35;72.56
75985;DHT22;65033;44.660;37.758;2024-01-15T04:04:26;7.34;73.50
75985;DHT22;65033;44.660;37.758;2024-01-15T04:05:30;7.35;73.25
75985;DHT22;65033;44.660;37.758;2024-01-15T04:06:33;7.35;73.81
75985;DHT22;65033;44.660;37.758;2024-01-15T04:07:55;7.35;75.66
75985;DHT22;65033;44.660;37.758;2024-01-15T04:08:59;7.38;76.01
75985;DHT22;65033;44.660;37.758;2024-01-15T04:10:02;7.39;76.15
75985;DHT22;65033;44.660;37.758;2024-01-15T04:11:06;7.35;76.57
75985;DHT22;65033;44.660;37.758;2024-01-15T04:12:11;7.31;76.47
75985;DHT22;65033;44.660;37.758;2024-01-15T04:13:14;7.22;76.15
75985;DHT22;65033;44.660;37.758;2024-01-15T04:14:21;7.54;82.62
75985;DHT22;65033;44.660;37.758;2024-01-15T04:15:24;7.63;78.87
75985;DHT22;65033;44.660;37.758;2024-01-15T04:16:28;7.47;78.24
75985;DHT22;65033;44.660;37.758;2024-01-15T04:17:31;7.35;79.11
75985;DHT22;65033;44.660;37.758;2024-01-15T04:18:34;7.32;79.69
75985;DHT22;65033;44.660;37.758;2024-01-15T04:19:38;7.25;79.59
75985;DHT22;65033;44.660;37.758;2024-01-15T04:20:41;7.10;80.30
75985;DHT22;65033;44.660;37.758;2024-01-15T04:22:03;7.00;81.68
75985;DHT22;65033;44.660;37.758;2024-01-15T04:23:07;6.91;81.33
75985;DHT22;65033;44.660;37.758;2024-01-15T04:24:31;6.86;81.36
75985;DHT22;65033;44.660;37.758;2024-01-15T04:25:34;6.84;81.13
75985;DHT22;65033;44.660;37.758;2024-01-15T04:26:39;6.82;81.01
75985;DHT22;65033;44.660;37.758;2024-01-15T04:27:43;6.82;81.49
75985;DHT22;65033;44.660;37.758;2024-01-15T04:28:47;6.84;81.87
75985;DHT22;65033;44.660;37.758;2024-01-15T04:29:50;6.85;82.15
75985;DHT22;65033;44.660;37.758;2024-01-15T04:30:54;6.83;82.57
75985;DHT22;65033;44.660;37.758;2024-01-15T04:32:02;6.81;82.09
75985;DHT22;65033;44.660;37.758;2024-01-15T04:33:05;6.82;81.83
75985;DHT22;65033;44.660;37.758;2024-01-15T04:34:09;6.81;81.49
75985;DHT22;65033;44.660;37.758;2024-01-15T04:35:12;6.80;81.87
75985;DHT22;65033;44.660;37.758;2024-01-15T04:36:16;6.79;82.39
75985;DHT22;65033;44.660;37.758;2024-01-15T04:37:20;6.80;83.47
75985;DHT22;65033;44.660;37.758;2024-01-15T04:38:24;6.82;83.88
75985;DHT22;65033;44.660;37.758;2024-01-15T04:39:28;6.83;84.01
75985;DHT22;65033;44.660;37.758;2024-01-15T04:40:31;6.86;84.32
75985;DHT22;65033;44.660;37.758;2024-01-15T04:41:35;6.88;84.26
75985;DHT22;65033;44.660;37.758;2024-01-15T04:42:39;6.90;84.28
75985;DHT22;65033;44.660;37.758;2024-01-15T04:43:44;6.94;84.45
75985;DHT22;65033;44.660;37.758;2024-01-15T04:44:48;6.96;84.52
75985;DHT22;65033;44.660;37.758;2024-01-15T04:45:52;7.01;84.81
75985;DHT22;65033;44.660;37.758;2024-01-15T04:46:55;7.09;84.84
75985;DHT22;65033;44.660;37.758;2024-01-15T04:48:01;7.13;84.82
75985;DHT22;65033;44.660;37.758;2024-01-15T04:49:05;7.17;84.38
75985;DHT22;65033;44.660;37.758;2024-01-15T04:50:09;8.02;92.28
75985;DHT22;65033;44.660;37.758;2024-01-15T04:51:13;9.09;96.36
75985;DHT22;65033;44.660;37.758;2024-01-15T04:52:35;8.93;83.06
75985;DHT22;65033;44.660;37.758;2024-01-15T04:53:39;8.85;77.08
75985;DHT22;65033;44.660;37.758;2024-01-15T04:54:43;8.70;76.03
75985;DHT22;65033;44.660;37.758;2024-01-15T04:55:46;8.62;76.62
75985;DHT22;65033;44.660;37.758;2024-01-15T04:56:50;8.50;77.26
75985;DHT22;65033;44.660;37.758;2024-01-15T04:57:54;8.44;77.44
75985;DHT22;65033;44.660;37.758;2024-01-15T04:58:59;8.35;77.18
75985;DHT22;65033;44.660;37.758;2024-01-15T05:00:04;8.31;76.88
75985;DHT22;65033;44.660;37.758;2024-01-15T05:01:10;8.27;76.99
75985;DHT22;65033;44.660;37.758;2024-01-15T05:02:14;8.24;77.01
75985;DHT22;65033;44.660;37.758;2024-01-15T05:03:19;8.23;77.28
75985;DHT22;65033;44.660;37.758;2024-01-15T05:04:22;8.24;77.47
75985;DHT22;65033;44.660;37.758;2024-01-15T05:05:27;8.24;77.16
75985;DHT22;65033;44.660;37.758;2024-01-15T05:06:31;8.26;76.15
75985;DHT22;65033;44.660;37.758;2024-01-15T05:07:35;8.30;73.93
75985;DHT22;65033;44.660;37.758;2024-01-15T05:08:38;8.34;73.31
75985;DHT22;65033;44.660;37.758;2024-01-15T05:09:42;8.36;71.18
75985;DHT22;65033;44.660;37.758;2024-01-15T05:10:48;8.41;70.55
75985;DHT22;65033;44.660;37.758;2024-01-15T05:11:52;8.46;70.91
75985;DHT22;65033;44.660;37.758;2024-01-15T05:12:55;8.46;71.53
75985;DHT22;65033;44.660;37.758;2024-01-15T05:14:01;8.49;71.63
75985;DHT22;65033;44.660;37.758;2024-01-15T05:15:05;8.51;72.01
75985;DHT22;65033;44.660;37.758;2024-01-15T05:16:08;8.55;72.57
75985;DHT22;65033;44.660;37.758;2024-01-15T05:17:12;8.56;72.03
75985;DHT22;65033;44.660;37.758;2024-01-15T05:19:40;9.03;70.97
75985;DHT22;65033;44.660;37.758;2024-01-15T05:20:44;8.98;70.93
75985;DHT22;65033;44.660;37.758;2024-01-15T05:21:48;8.94;71.25
75985;DHT22;65033;44.660;37.758;2024-01-15T05:22:52;8.91;71.45
75985;DHT22;65033;44.660;37.758;2024-01-15T05:23:55;8.87;70.97
75985;DHT22;65033;44.660;37.758;2024-01-15T05:24:59;8.87;71.00
75985;DHT22;65033;44.660;37.758;2024-01-15T05:26:03;8.87;71.27
75985;DHT22;65033;44.660;37.758;2024-01-15T05:27:06;8.87;70.97
75985;DHT22;65033;44.660;37.758;2024-01-15T05:28:14;8.88;71.71
75985;DHT22;65033;44.660;37.758;2024-01-15T05:29:40;8.87;71.67
75985;DHT22;65033;44.660;37.758;2024-01-15T05:30:45;8.88;72.15
75985;DHT22;65033;44.660;37.758;2024-01-15T05:31:49;8.88;71.93
75985;DHT22;65033;44.660;37.758;2024-01-15T05:32:52;8.89;71.82
75985;DHT22;65033;44.660;37.758;2024-01-15T05:33:57;8.92;71.65
75985;DHT22;65033;44.660;37.758;2024-01-15T05:35:02;8.91;71.67
75985;DHT22;65033;44.660;37.758;2024-01-15T05:36:06;8.94;71.95
75985;DHT22;65033;44.660;37.758;2024-01-15T05:37:10;9.35;78.54
75985;DHT22;65033;44.660;37.758;2024-01-15T05:38:13;9.86;74.07
75985;DHT22;65033;44.660;37.758;2024-01-15T05:39:16;9.85;68.08
75985;DHT22;65033;44.660;37.758;2024-01-15T05:40:20;9.79;68.51
75985;DHT22;65033;44.660;37.758;2024-01-15T05:41:23;9.69;67.21
75985;DHT22;65033;44.660;37.758;2024-01-15T05:42:26;9.63;68.39
75985;DHT22;65033;44.660;37.758;2024-01-15T05:43:32;9.59;68.90
75985;DHT22;65033;44.660;37.758;2024-01-15T05:44:36;9.55;69.90
75985;DHT22;65033;44.660;37.758;2024-01-15T05:45:43;9.54;69.71
75985;DHT22;65033;44.660;37.758;2024-01-15T05:46:47;9.51;68.20
75985;DHT22;65033;44.660;37.758;2024-01-15T05:47:50;9.49;68.83
75985;DHT22;65033;44.660;37.758;2024-01-15T05:48:53;9.49;68.46
75985;DHT22;65033;44.660;37.758;2024-01-15T05:50:16;9.49;68.53
75985;DHT22;65033;44.660;37.758;2024-01-15T05:51:38;9.46;69.81
75985;DHT22;65033;44.660;37.758;2024-01-15T05:52:41;9.46;70.45
75985;DHT22;65033;44.660;37.758;2024-01-15T05:53:44;9.44;69.78
75985;DHT22;65033;44.660;37.758;2024-01-15T05:54:48;9.46;69.59
75985;DHT22;65033;44.660;37.758;2024-01-15T05:55:52;9.46;70.03
75985;DHT22;65033;44.660;37.758;2024-01-15T05:56:57;9.46;70.16
75985;DHT22;65033;44.660;37.758;2024-01-15T05:58:00;9.47;70.18
75985;DHT22;65033;44.660;37.758;2024-01-15T05:59:05;9.47;67.78
75985;DHT22;65033;44.660;37.758;2024-01-15T06:00:09;9.48;67.65
75985;DHT22;65033;44.660;37.758;2024-01-15T06:01:25;9.53;66.69
75985;DHT22;65033;44.660;37.758;2024-01-15T06:02:47;9.57;65.91
75985;DHT22;65033;44.660;37.758;2024-01-15T06:03:50;9.61;65.51
75985;DHT22;65033;44.660;37.758;2024-01-15T06:04:56;9.65;66.72
75985;DHT22;65033;44.660;37.758;2024-01-15T06:06:18;9.70;66.79
75985;DHT22;65033;44.660;37.758;2024-01-15T06:07:22;9.71;65.54
75985;DHT22;65033;44.660;37.758;2024-01-15T06:08:25;9.69;64.26
75985;DHT22;65033;44.660;37.758;2024-01-15T06:09:30;9.68;63.92
75985;DHT22;65033;44.660;37.758;2024-01-15T06:10:34;9.68;63.52
75985;DHT22;65033;44.660;37.758;2024-01-15T06:11:38;9.74;66.23
75985;DHT22;65033;44.660;37.758;2024-01-15T06:12:46;10.21;66.27
75985;DHT22;65033;44.660;37.758;2024-01-15T06:13:53;10.12;63.26
75985;DHT22;65033;44.660;37.758;2024-01-15T06:14:56;10.05;63.13
75985;DHT22;65033;44.660;37.758;2024-01-15T06:15:59;9.98;64.31
75985;DHT22;65033;44.660;37.758;2024-01-15T06:17:23;10.03;66.65
75985;DHT22;65033;44.660;37.758;2024-01-15T06:18:44;10.28;63.45
75985;DHT22;65033;44.660;37.758;2024-01-15T06:19:48;10.26;62.88
75985;DHT22;65033;44.660;37.758;2024-01-15T06:21:11;10.23;63.54
75985;DHT22;65033;44.660;37.758;2024-01-15T06:22:18;10.23;63.09
75985;DHT22;65033;44.660;37.758;2024-01-15T06:23:21;10.18;62.90
75985;DHT22;65033;44.660;37.758;2024-01-15T06:24:24;10.15;62.84
75985;DHT22;65033;44.660;37.758;2024-01-15T06:25:47;10.06;63.69
75985;DHT22;65033;44.660;37.758;2024-01-15T06:26:51;9.93;64.88
75985;DHT22;65033;44.660;37.758;2024-01-15T06:27:55;9.75;64.14
75985;DHT22;65033;44.660;37.758;2024-01-15T06:29:01;9.61;63.12
75985;DHT22;65033;44.660;37.758;2024-01-15T06:30:06;9.50;62.81
75985;DHT22;65033;44.660;37.758;2024-01-15T06:31:10;9.40;62.50
75985;DHT22;65033;44.660;37.758;2024-01-15T06:32:15;9.26;63.08
75985;DHT22;65033;44.660;37.758;2024-01-15T06:34:55;9.00;63.51
75985;DHT22;65033;44.660;37.758;2024-01-15T06:35:59;8.89;64.60
75985;DHT22;65033;44.660;37.758;2024-01-15T06:37:03;8.79;65.47
75985;DHT22;65033;44.660;37.758;2024-01-15T06:38:07;8.67;65.27
75985;DHT22;65033;44.660;37.758;2024-01-15T06:39:28;8.58;66.31
75985;DHT22;65033;44.660;37.758;2024-01-15T06:40:32;8.50;67.22
75985;DHT22;65033;44.660;37.758;2024-01-15T06:41:38;8.51;67.68
75985;DHT22;65033;44.660;37.758;2024-01-15T06:43:03;8.53;67.22
75985;DHT22;65033;44.660;37.758;2024-01-15T06:44:07;8.56;67.14
75985;DHT22;65033;44.660;37.758;2024-01-15T06:45:10;8.57;67.74
75985;DHT22;65033;44.660;37.758;2024-01-15T06:46:20;8.57;68.47
75985;DHT22;65033;44.660;37.758;2024-01-15T06:47:24;8.60;69.20
75985;DHT22;65033;44.660;37.758;2024-01-15T06:48:27;8.59;70.20
75985;DHT22;65033;44.660;37.758;2024-01-15T06:49:32;8.56;68.68
75985;DHT22;65033;44.660;37.758;2024-01-15T06:50:35;8.56;69.16
75985;DHT22;65033;44.660;37.758;2024-01-15T06:51:39;8.57;69.81
75985;DHT22;65033;44.660;37.758;2024-01-15T06:52:42;8.55;70.43
75985;DHT22;65033;44.660;37.758;2024-01-15T06:53:46;8.47;70.55
75985;DHT22;65033;44.660;37.758;2024-01-15T06:54:49;8.42;71.22
75985;DHT22;65033;44.660;37.758;2024-01-15T06:56:11;8.36;72.56
75985;DHT22;65033;44.660;37.758;2024-01-15T06:57:15;8.31;72.65
75985;DHT22;65033;44.660;37.758;2024-01-15T06:58:18;8.26;72.41
75985;DHT22;65033;44.660;37.758;2024-01-15T06:59:22;8.22;72.07
75985;DHT22;65033;44.660;37.758;2024-01-15T07:00:25;8.19;72.31
75985;DHT22;65033;44.660;37.758;2024-01-15T07:01:31;8.15;71.65
75985;DHT22;65033;44.660;37.758;2024-01-15T07:02:34;8.15;71.56
75985;DHT22;65033;44.660;37.758;2024-01-15T07:03:38;8.18;73.03
75985;DHT22;65033;44.660;37.758;2024-01-15T07:04:43;9.33;88.67
75985;DHT22;65033;44.660;37.758;2024-01-15T07:05:46;9.70;78.97
75985;DHT22;65033;44.660;37.758;2024-01-15T07:07:08;9.53;66.75